Terminal Aerodrome Forecast
Issued by NWS Jacksonville, FL

Home | Current Version | Previous Version | Text Only | Print | Product List | Glossary On
Versions: 1 2 3 4 5 6 7 8 9 10 11 12 13 14 15
000
FTUS42 KJAX 212049 AAA
TAFSSI
TAF AMD
KSSI 212049Z 2121/2218 14006KT P6SM VCSH SCT025 BKN050 OVC100
     FM212200 09006KT 5SM -RA VCTS BKN025CB OVC050
     FM220200 VRB04KT 5SM BR SCT005 BKN100 OVC200
     FM220700 VRB02KT 1SM BR OVC004
     FM221500 03008KT P6SM SCT008 BKN015 OVC030=

USA.gov is the U.S. government's official web portal to all federal, state and local government web resources and services.